sensor_id;sensor_type;location;lat;lon;timestamp;P1;durP1;ratioP1;P2;durP2;ratioP2
22673;SDS011;11504;43.334;21.918;2024-02-26T00:00:35;19.0;;;18.0;;
22673;SDS011;11504;43.334;21.918;2024-02-26T00:05:12;21.0;;;20.0;;
22673;SDS011;11504;43.334;21.918;2024-02-26T00:09:48;21.0;;;20.0;;
22673;SDS011;11504;43.334;21.918;2024-02-26T00:14:24;23.0;;;22.0;;
22673;SDS011;11504;43.334;21.918;2024-02-26T00:19:01;23.0;;;22.0;;
22673;SDS011;11504;43.334;21.918;2024-02-26T00:23:38;20.0;;;20.0;;
22673;SDS011;11504;43.334;21.918;2024-02-26T00:28:14;20.0;;;20.0;;
22673;SDS011;11504;43.334;21.918;2024-02-26T00:32:50;18.0;;;17.0;;
22673;SDS011;11504;43.334;21.918;2024-02-26T00:37:27;18.0;;;17.0;;
22673;SDS011;11504;43.334;21.918;2024-02-26T00:42:03;18.0;;;17.0;;
22673;SDS011;11504;43.334;21.918;2024-02-26T00:46:40;20.0;;;18.0;;
22673;SDS011;11504;43.334;21.918;2024-02-26T00:51:16;20.0;;;18.0;;
22673;SDS011;11504;43.334;21.918;2024-02-26T00:55:53;21.0;;;20.0;;
22673;SDS011;11504;43.334;21.918;2024-02-26T01:00:29;21.0;;;20.0;;
22673;SDS011;11504;43.334;21.918;2024-02-26T01:05:06;20.0;;;20.0;;
22673;SDS011;11504;43.334;21.918;2024-02-26T01:09:45;20.0;;;20.0;;
22673;SDS011;11504;43.334;21.918;2024-02-26T01:14:21;19.0;;;19.0;;
22673;SDS011;11504;43.334;21.918;2024-02-26T01:18:57;19.0;;;19.0;;
22673;SDS011;11504;43.334;21.918;2024-02-26T01:23:34;18.0;;;18.0;;
22673;SDS011;11504;43.334;21.918;2024-02-26T01:28:10;18.0;;;18.0;;
22673;SDS011;11504;43.334;21.918;2024-02-26T01:32:47;17.0;;;16.0;;
22673;SDS011;11504;43.334;21.918;2024-02-26T01:37:23;17.0;;;16.0;;
22673;SDS011;11504;43.334;21.918;2024-02-26T01:42:01;17.0;;;16.0;;
22673;SDS011;11504;43.334;21.918;2024-02-26T01:46:38;16.0;;;14.0;;
22673;SDS011;11504;43.334;21.918;2024-02-26T01:51:15;16.0;;;14.0;;
22673;SDS011;11504;43.334;21.918;2024-02-26T01:55:53;14.0;;;13.0;;
22673;SDS011;11504;43.334;21.918;2024-02-26T02:00:30;14.0;;;13.0;;
22673;SDS011;11504;43.334;21.918;2024-02-26T02:05:09;14.0;;;12.0;;
22673;SDS011;11504;43.334;21.918;2024-02-26T02:09:50;14.0;;;12.0;;
22673;SDS011;11504;43.334;21.918;2024-02-26T02:14:28;13.0;;;12.0;;
22673;SDS011;11504;43.334;21.918;2024-02-26T02:19:04;13.0;;;12.0;;
22673;SDS011;11504;43.334;21.918;2024-02-26T02:23:41;14.0;;;12.0;;
22673;SDS011;11504;43.334;21.918;2024-02-26T02:28:17;14.0;;;12.0;;
22673;SDS011;11504;43.334;21.918;2024-02-26T02:32:57;14.0;;;13.0;;
22673;SDS011;11504;43.334;21.918;2024-02-26T02:37:35;14.0;;;13.0;;
22673;SDS011;11504;43.334;21.918;2024-02-26T02:42:11;14.0;;;13.0;;
22673;SDS011;11504;43.334;21.918;2024-02-26T02:46:48;13.0;;;12.0;;
22673;SDS011;11504;43.334;21.918;2024-02-26T02:51:24;13.0;;;12.0;;
22673;SDS011;11504;43.334;21.918;2024-02-26T02:56:00;12.0;;;11.0;;
22673;SDS011;11504;43.334;21.918;2024-02-26T03:00:36;12.0;;;11.0;;
22673;SDS011;11504;43.334;21.918;2024-02-26T03:05:12;12.0;;;11.0;;
22673;SDS011;11504;43.334;21.918;2024-02-26T03:09:48;12.0;;;11.0;;
22673;SDS011;11504;43.334;21.918;2024-02-26T03:14:24;12.0;;;11.0;;
22673;SDS011;11504;43.334;21.918;2024-02-26T03:19:00;12.0;;;11.0;;
22673;SDS011;11504;43.334;21.918;2024-02-26T03:23:36;12.0;;;11.0;;
22673;SDS011;11504;43.334;21.918;2024-02-26T03:28:12;12.0;;;11.0;;
22673;SDS011;11504;43.334;21.918;2024-02-26T03:32:49;11.0;;;11.0;;
22673;SDS011;11504;43.334;21.918;2024-02-26T03:37:25;11.0;;;11.0;;
22673;SDS011;11504;43.334;21.918;2024-02-26T03:42:02;11.0;;;11.0;;
22673;SDS011;11504;43.334;21.918;2024-02-26T03:46:39;12.0;;;12.0;;
22673;SDS011;11504;43.334;21.918;2024-02-26T03:51:16;12.0;;;12.0;;
22673;SDS011;11504;43.334;21.918;2024-02-26T03:55:53;13.0;;;12.0;;
22673;SDS011;11504;43.334;21.918;2024-02-26T04:00:30;13.0;;;12.0;;
22673;SDS011;11504;43.334;21.918;2024-02-26T04:05:09;13.0;;;12.0;;
22673;SDS011;11504;43.334;21.918;2024-02-26T04:09:48;13.0;;;12.0;;
22673;SDS011;11504;43.334;21.918;2024-02-26T04:14:24;13.0;;;12.0;;
22673;SDS011;11504;43.334;21.918;2024-02-26T04:19:01;13.0;;;12.0;;
22673;SDS011;11504;43.334;21.918;2024-02-26T04:23:37;14.0;;;13.0;;
22673;SDS011;11504;43.334;21.918;2024-02-26T04:28:14;14.0;;;13.0;;
22673;SDS011;11504;43.334;21.918;2024-02-26T04:32:50;14.0;;;14.0;;
22673;SDS011;11504;43.334;21.918;2024-02-26T04:37:27;14.0;;;14.0;;
22673;SDS011;11504;43.334;21.918;2024-02-26T04:42:03;14.0;;;14.0;;
22673;SDS011;11504;43.334;21.918;2024-02-26T04:46:39;14.0;;;13.0;;
22673;SDS011;11504;43.334;21.918;2024-02-26T04:51:16;14.0;;;13.0;;
22673;SDS011;11504;43.334;21.918;2024-02-26T04:55:52;13.0;;;12.0;;
22673;SDS011;11504;43.334;21.918;2024-02-26T05:00:29;13.0;;;12.0;;
22673;SDS011;11504;43.334;21.918;2024-02-26T05:05:06;14.0;;;14.0;;
22673;SDS011;11504;43.334;21.918;2024-02-26T05:09:44;14.0;;;14.0;;
22673;SDS011;11504;43.334;21.918;2024-02-26T05:14:22;16.0;;;15.0;;
22673;SDS011;11504;43.334;21.918;2024-02-26T05:18:59;16.0;;;15.0;;
22673;SDS011;11504;43.334;21.918;2024-02-26T05:23:35;17.0;;;16.0;;
22673;SDS011;11504;43.334;21.918;2024-02-26T05:28:11;17.0;;;16.0;;
22673;SDS011;11504;43.334;21.918;2024-02-26T05:32:47;18.0;;;16.0;;
22673;SDS011;11504;43.334;21.918;2024-02-26T05:37:23;18.0;;;16.0;;
22673;SDS011;11504;43.334;21.918;2024-02-26T05:41:59;18.0;;;16.0;;
22673;SDS011;11504;43.334;21.918;2024-02-26T05:46:35;18.0;;;17.0;;
22673;SDS011;11504;43.334;21.918;2024-02-26T05:51:11;18.0;;;17.0;;
22673;SDS011;11504;43.334;21.918;2024-02-26T05:55:48;19.0;;;18.0;;
22673;SDS011;11504;43.334;21.918;2024-02-26T06:00:24;19.0;;;18.0;;
22673;SDS011;11504;43.334;21.918;2024-02-26T06:05:00;18.0;;;18.0;;
22673;SDS011;11504;43.334;21.918;2024-02-26T06:09:36;18.0;;;18.0;;
22673;SDS011;11504;43.334;21.918;2024-02-26T06:14:12;18.0;;;17.0;;
22673;SDS011;11504;43.334;21.918;2024-02-26T06:18:49;18.0;;;17.0;;
22673;SDS011;11504;43.334;21.918;2024-02-26T06:23:25;20.0;;;19.0;;
22673;SDS011;11504;43.334;21.918;2024-02-26T06:28:02;20.0;;;19.0;;
22673;SDS011;11504;43.334;21.918;2024-02-26T06:32:41;22.0;;;21.0;;
22673;SDS011;11504;43.334;21.918;2024-02-26T06:37:18;22.0;;;21.0;;
22673;SDS011;11504;43.334;21.918;2024-02-26T06:41:54;22.0;;;21.0;;
22673;SDS011;11504;43.334;21.918;2024-02-26T06:46:30;20.0;;;19.0;;
22673;SDS011;11504;43.334;21.918;2024-02-26T06:51:07;20.0;;;19.0;;
22673;SDS011;11504;43.334;21.918;2024-02-26T06:55:43;18.0;;;17.0;;
22673;SDS011;11504;43.334;21.918;2024-02-26T07:00:20;18.0;;;17.0;;
22673;SDS011;11504;43.334;21.918;2024-02-26T07:04:56;18.0;;;18.0;;
22673;SDS011;11504;43.334;21.918;2024-02-26T07:09:32;18.0;;;18.0;;
22673;SDS011;11504;43.334;21.918;2024-02-26T07:14:09;19.0;;;18.0;;
22673;SDS011;11504;43.334;21.918;2024-02-26T07:18:48;19.0;;;18.0;;
22673;SDS011;11504;43.334;21.918;2024-02-26T07:23:24;19.0;;;18.0;;
22673;SDS011;11504;43.334;21.918;2024-02-26T07:28:01;19.0;;;18.0;;
22673;SDS011;11504;43.334;21.918;2024-02-26T07:32:37;19.0;;;18.0;;
22673;SDS011;11504;43.334;21.918;2024-02-26T07:37:13;19.0;;;18.0;;
22673;SDS011;11504;43.334;21.918;2024-02-26T07:41:50;19.0;;;18.0;;
22673;SDS011;11504;43.334;21.918;2024-02-26T07:46:26;22.0;;;21.0;;
22673;SDS011;11504;43.334;21.918;2024-02-26T07:51:03;22.0;;;21.0;;
22673;SDS011;11504;43.334;21.918;2024-02-26T07:55:41;25.0;;;24.0;;
22673;SDS011;11504;43.334;21.918;2024-02-26T08:00:18;25.0;;;24.0;;
22673;SDS011;11504;43.334;21.918;2024-02-26T08:04:56;22.0;;;21.0;;
22673;SDS011;11504;43.334;21.918;2024-02-26T08:09:33;22.0;;;21.0;;
22673;SDS011;11504;43.334;21.918;2024-02-26T08:14:09;19.0;;;18.0;;
22673;SDS011;11504;43.334;21.918;2024-02-26T08:18:45;19.0;;;18.0;;
22673;SDS011;11504;43.334;21.918;2024-02-26T08:23:21;20.0;;;19.0;;
22673;SDS011;11504;43.334;21.918;2024-02-26T08:27:58;20.0;;;19.0;;
22673;SDS011;11504;43.334;21.918;2024-02-26T08:32:34;20.0;;;19.0;;
22673;SDS011;11504;43.334;21.918;2024-02-26T08:37:10;21.0;;;20.0;;
22673;SDS011;11504;43.334;21.918;2024-02-26T08:41:46;21.0;;;20.0;;
22673;SDS011;11504;43.334;21.918;2024-02-26T08:46:22;20.0;;;18.0;;
22673;SDS011;11504;43.334;21.918;2024-02-26T08:50:58;20.0;;;18.0;;
22673;SDS011;11504;43.334;21.918;2024-02-26T08:55:34;18.0;;;17.0;;
22673;SDS011;11504;43.334;21.918;2024-02-26T09:00:11;18.0;;;17.0;;
22673;SDS011;11504;43.334;21.918;2024-02-26T09:04:49;16.0;;;15.0;;
22673;SDS011;11504;43.334;21.918;2024-02-26T09:09:25;16.0;;;15.0;;
22673;SDS011;11504;43.334;21.918;2024-02-26T09:14:02;14.0;;;13.0;;
22673;SDS011;11504;43.334;21.918;2024-02-26T09:18:38;14.0;;;13.0;;
22673;SDS011;11504;43.334;21.918;2024-02-26T09:23:15;13.0;;;12.0;;
22673;SDS011;11504;43.334;21.918;2024-02-26T09:27:52;13.0;;;12.0;;
22673;SDS011;11504;43.334;21.918;2024-02-26T09:32:28;13.0;;;12.0;;
22673;SDS011;11504;43.334;21.918;2024-02-26T09:37:06;12.0;;;11.0;;
22673;SDS011;11504;43.334;21.918;2024-02-26T09:41:44;12.0;;;11.0;;
22673;SDS011;11504;43.334;21.918;2024-02-26T09:46:21;13.0;;;12.0;;
22673;SDS011;11504;43.334;21.918;2024-02-26T09:51:01;13.0;;;12.0;;
22673;SDS011;11504;43.334;21.918;2024-02-26T09:55:41;14.0;;;13.0;;
22673;SDS011;11504;43.334;21.918;2024-02-26T10:00:20;14.0;;;13.0;;
22673;SDS011;11504;43.334;21.918;2024-02-26T10:04:59;14.0;;;12.0;;
22673;SDS011;11504;43.334;21.918;2024-02-26T10:09:44;14.0;;;12.0;;
22673;SDS011;11504;43.334;21.918;2024-02-26T10:14:21;13.0;;;12.0;;
22673;SDS011;11504;43.334;21.918;2024-02-26T10:18:57;13.0;;;12.0;;
22673;SDS011;11504;43.334;21.918;2024-02-26T10:23:33;14.0;;;12.0;;
22673;SDS011;11504;43.334;21.918;2024-02-26T10:28:10;14.0;;;12.0;;
22673;SDS011;11504;43.334;21.918;2024-02-26T10:32:47;14.0;;;12.0;;
22673;SDS011;11504;43.334;21.918;2024-02-26T10:37:27;14.0;;;13.0;;
22673;SDS011;11504;43.334;21.918;2024-02-26T10:42:03;14.0;;;13.0;;
22673;SDS011;11504;43.334;21.918;2024-02-26T10:46:40;12.0;;;12.0;;
22673;SDS011;11504;43.334;21.918;2024-02-26T10:51:20;12.0;;;12.0;;
22673;SDS011;11504;43.334;21.918;2024-02-26T10:56:15;10.0;;;10.0;;
22673;SDS011;11504;43.334;21.918;2024-02-26T11:00:59;10.0;;;10.0;;
22673;SDS011;11504;43.334;21.918;2024-02-26T11:05:39;10.0;;;10.0;;
22673;SDS011;11504;43.334;21.918;2024-02-26T11:10:19;10.0;;;10.0;;
22673;SDS011;11504;43.334;21.918;2024-02-26T11:14:58;10.0;;;9.0;;
22673;SDS011;11504;43.334;21.918;2024-02-26T11:19:38;10.0;;;9.0;;
22673;SDS011;11504;43.334;21.918;2024-02-26T11:24:18;10.0;;;10.0;;
22673;SDS011;11504;43.334;21.918;2024-02-26T11:28:55;10.0;;;10.0;;
22673;SDS011;11504;43.334;21.918;2024-02-26T11:33:33;10.0;;;10.0;;
22673;SDS011;11504;43.334;21.918;2024-02-26T11:38:17;10.0;;;10.0;;
22673;SDS011;11504;43.334;21.918;2024-02-26T11:43:00;11.0;;;11.0;;
22673;SDS011;11504;43.334;21.918;2024-02-26T11:47:36;11.0;;;11.0;;
22673;SDS011;11504;43.334;21.918;2024-02-26T11:52:14;11.0;;;11.0;;
22673;SDS011;11504;43.334;21.918;2024-02-26T11:56:52;12.0;;;12.0;;
22673;SDS011;11504;43.334;21.918;2024-02-26T12:01:46;12.0;;;12.0;;
22673;SDS011;11504;43.334;21.918;2024-02-26T12:06:24;12.0;;;12.0;;
22673;SDS011;11504;43.334;21.918;2024-02-26T12:11:03;12.0;;;12.0;;
22673;SDS011;11504;43.334;21.918;2024-02-26T12:15:56;11.0;;;11.0;;
22673;SDS011;11504;43.334;21.918;2024-02-26T12:20:34;11.0;;;11.0;;
22673;SDS011;11504;43.334;21.918;2024-02-26T12:25:10;10.0;;;10.0;;
22673;SDS011;11504;43.334;21.918;2024-02-26T12:29:48;10.0;;;10.0;;
22673;SDS011;11504;43.334;21.918;2024-02-26T12:34:25;9.0;;;8.0;;
22673;SDS011;11504;43.334;21.918;2024-02-26T12:39:03;9.0;;;8.0;;
22673;SDS011;11504;43.334;21.918;2024-02-26T12:43:41;10.0;;;8.0;;
22673;SDS011;11504;43.334;21.918;2024-02-26T12:48:17;10.0;;;8.0;;
22673;SDS011;11504;43.334;21.918;2024-02-26T12:52:54;10.0;;;8.0;;
22673;SDS011;11504;43.334;21.918;2024-02-26T12:57:33;10.0;;;9.0;;
22673;SDS011;11504;43.334;21.918;2024-02-26T13:02:15;10.0;;;9.0;;
22673;SDS011;11504;43.334;21.918;2024-02-26T13:06:52;10.0;;;9.0;;
22673;SDS011;11504;43.334;21.918;2024-02-26T13:11:29;10.0;;;9.0;;
22673;SDS011;11504;43.334;21.918;2024-02-26T13:16:09;9.0;;;9.0;;
22673;SDS011;11504;43.334;21.918;2024-02-26T13:20:51;9.0;;;9.0;;
22673;SDS011;11504;43.334;21.918;2024-02-26T13:25:27;10.0;;;8.0;;
22673;SDS011;11504;43.334;21.918;2024-02-26T13:30:06;10.0;;;8.0;;
22673;SDS011;11504;43.334;21.918;2024-02-26T13:34:48;10.0;;;8.0;;
22673;SDS011;11504;43.334;21.918;2024-02-26T13:39:26;10.0;;;8.0;;
22673;SDS011;11504;43.334;21.918;2024-02-26T13:44:04;9.0;;;8.0;;
22673;SDS011;11504;43.334;21.918;2024-02-26T13:48:40;9.0;;;8.0;;
22673;SDS011;11504;43.334;21.918;2024-02-26T13:53:17;8.0;;;8.0;;
22673;SDS011;11504;43.334;21.918;2024-02-26T13:57:53;8.0;;;8.0;;
22673;SDS011;11504;43.334;21.918;2024-02-26T14:02:30;8.0;;;8.0;;
22673;SDS011;11504;43.334;21.918;2024-02-26T14:07:08;10.0;;;10.0;;
22673;SDS011;11504;43.334;21.918;2024-02-26T14:11:47;10.0;;;10.0;;
22673;SDS011;11504;43.334;21.918;2024-02-26T14:16:24;12.0;;;11.0;;
22673;SDS011;11504;43.334;21.918;2024-02-26T14:21:00;12.0;;;11.0;;
22673;SDS011;11504;43.334;21.918;2024-02-26T14:25:37;11.0;;;10.0;;
22673;SDS011;11504;43.334;21.918;2024-02-26T14:30:14;11.0;;;10.0;;
22673;SDS011;11504;43.334;21.918;2024-02-26T14:34:51;10.0;;;9.0;;
22673;SDS011;11504;43.334;21.918;2024-02-26T14:39:29;10.0;;;9.0;;
22673;SDS011;11504;43.334;21.918;2024-02-26T14:44:08;11.0;;;10.0;;
22673;SDS011;11504;43.334;21.918;2024-02-26T14:48:44;11.0;;;10.0;;
22673;SDS011;11504;43.334;21.918;2024-02-26T14:53:20;12.0;;;11.0;;
22673;SDS011;11504;43.334;21.918;2024-02-26T14:57:57;12.0;;;11.0;;
22673;SDS011;11504;43.334;21.918;2024-02-26T15:02:33;12.0;;;11.0;;
22673;SDS011;11504;43.334;21.918;2024-02-26T15:07:09;12.0;;;11.0;;
22673;SDS011;11504;43.334;21.918;2024-02-26T15:11:46;12.0;;;11.0;;
22673;SDS011;11504;43.334;21.918;2024-02-26T15:16:22;12.0;;;11.0;;
22673;SDS011;11504;43.334;21.918;2024-02-26T15:20:58;12.0;;;11.0;;
22673;SDS011;11504;43.334;21.918;2024-02-26T15:25:34;12.0;;;12.0;;
22673;SDS011;11504;43.334;21.918;2024-02-26T15:30:11;12.0;;;12.0;;
22673;SDS011;11504;43.334;21.918;2024-02-26T15:34:49;13.0;;;13.0;;
22673;SDS011;11504;43.334;21.918;2024-02-26T15:39:26;13.0;;;13.0;;
22673;SDS011;11504;43.334;21.918;2024-02-26T15:44:03;13.0;;;12.0;;
22673;SDS011;11504;43.334;21.918;2024-02-26T15:48:41;13.0;;;12.0;;
22673;SDS011;11504;43.334;21.918;2024-02-26T15:53:18;13.0;;;12.0;;
22673;SDS011;11504;43.334;21.918;2024-02-26T15:57:54;13.0;;;12.0;;
22673;SDS011;11504;43.334;21.918;2024-02-26T16:02:30;13.0;;;12.0;;
22673;SDS011;11504;43.334;21.918;2024-02-26T16:07:14;15.0;;;14.0;;
22673;SDS011;11504;43.334;21.918;2024-02-26T16:12:22;15.0;;;14.0;;
22673;SDS011;11504;43.334;21.918;2024-02-26T16:17:24;17.0;;;15.0;;
22673;SDS011;11504;43.334;21.918;2024-02-26T16:22:10;17.0;;;15.0;;
22673;SDS011;11504;43.334;21.918;2024-02-26T16:26:47;18.0;;;16.0;;
22673;SDS011;11504;43.334;21.918;2024-02-26T16:31:22;18.0;;;16.0;;
22673;SDS011;11504;43.334;21.918;2024-02-26T16:35:58;18.0;;;17.0;;
22673;SDS011;11504;43.334;21.918;2024-02-26T16:40:36;18.0;;;17.0;;
22673;SDS011;11504;43.334;21.918;2024-02-26T16:45:16;18.0;;;16.0;;
22673;SDS011;11504;43.334;21.918;2024-02-26T16:49:52;18.0;;;16.0;;
22673;SDS011;11504;43.334;21.918;2024-02-26T16:54:28;17.0;;;16.0;;
22673;SDS011;11504;43.334;21.918;2024-02-26T16:59:05;17.0;;;16.0;;
22673;SDS011;11504;43.334;21.918;2024-02-26T17:03:41;16.0;;;16.0;;
22673;SDS011;11504;43.334;21.918;2024-02-26T17:08:17;16.0;;;16.0;;
22673;SDS011;11504;43.334;21.918;2024-02-26T17:12:54;16.0;;;16.0;;
22673;SDS011;11504;43.334;21.918;2024-02-26T17:17:30;16.0;;;15.0;;
22673;SDS011;11504;43.334;21.918;2024-02-26T17:22:07;16.0;;;15.0;;
22673;SDS011;11504;43.334;21.918;2024-02-26T17:26:43;14.0;;;14.0;;
22673;SDS011;11504;43.334;21.918;2024-02-26T17:31:19;14.0;;;14.0;;
22673;SDS011;11504;43.334;21.918;2024-02-26T17:35:56;13.0;;;12.0;;
22673;SDS011;11504;43.334;21.918;2024-02-26T17:40:32;13.0;;;12.0;;
22673;SDS011;11504;43.334;21.918;2024-02-26T17:45:10;14.0;;;13.0;;
22673;SDS011;11504;43.334;21.918;2024-02-26T17:49:46;14.0;;;13.0;;
22673;SDS011;11504;43.334;21.918;2024-02-26T17:54:22;15.0;;;14.0;;
22673;SDS011;11504;43.334;21.918;2024-02-26T17:58:58;15.0;;;14.0;;
22673;SDS011;11504;43.334;21.918;2024-02-26T18:03:34;18.0;;;17.0;;
22673;SDS011;11504;43.334;21.918;2024-02-26T18:08:10;18.0;;;17.0;;
22673;SDS011;11504;43.334;21.918;2024-02-26T18:12:46;18.0;;;17.0;;
22673;SDS011;11504;43.334;21.918;2024-02-26T18:17:23;21.0;;;20.0;;
22673;SDS011;11504;43.334;21.918;2024-02-26T18:21:59;21.0;;;20.0;;
22673;SDS011;11504;43.334;21.918;2024-02-26T18:26:35;18.0;;;18.0;;
22673;SDS011;11504;43.334;21.918;2024-02-26T18:31:12;18.0;;;18.0;;
22673;SDS011;11504;43.334;21.918;2024-02-26T18:35:49;16.0;;;15.0;;
22673;SDS011;11504;43.334;21.918;2024-02-26T18:40:25;16.0;;;15.0;;
22673;SDS011;11504;43.334;21.918;2024-02-26T18:45:02;16.0;;;15.0;;
22673;SDS011;11504;43.334;21.918;2024-02-26T18:49:40;16.0;;;15.0;;
22673;SDS011;11504;43.334;21.918;2024-02-26T18:54:17;16.0;;;15.0;;
22673;SDS011;11504;43.334;21.918;2024-02-26T18:58:53;16.0;;;15.0;;
22673;SDS011;11504;43.334;21.918;2024-02-26T19:03:29;16.0;;;14.0;;
22673;SDS011;11504;43.334;21.918;2024-02-26T19:08:06;16.0;;;14.0;;
22673;SDS011;11504;43.334;21.918;2024-02-26T19:12:42;16.0;;;14.0;;
22673;SDS011;11504;43.334;21.918;2024-02-26T19:17:19;15.0;;;14.0;;
22673;SDS011;11504;43.334;21.918;2024-02-26T19:21:55;15.0;;;14.0;;
22673;SDS011;11504;43.334;21.918;2024-02-26T19:26:32;14.0;;;14.0;;
22673;SDS011;11504;43.334;21.918;2024-02-26T19:31:10;14.0;;;14.0;;
22673;SDS011;11504;43.334;21.918;2024-02-26T19:35:48;13.0;;;13.0;;
22673;SDS011;11504;43.334;21.918;2024-02-26T19:40:24;13.0;;;13.0;;
22673;SDS011;11504;43.334;21.918;2024-02-26T19:45:00;13.0;;;13.0;;
22673;SDS011;11504;43.334;21.918;2024-02-26T19:49:37;13.0;;;13.0;;
22673;SDS011;11504;43.334;21.918;2024-02-26T20:26:30;15.0;;;15.0;;
22673;SDS011;11504;43.334;21.918;2024-02-26T20:31:06;15.0;;;15.0;;
22673;SDS011;11504;43.334;21.918;2024-02-26T20:35:43;15.0;;;15.0;;
22673;SDS011;11504;43.334;21.918;2024-02-26T20:40:19;15.0;;;15.0;;
22673;SDS011;11504;43.334;21.918;2024-02-26T20:44:55;14.0;;;14.0;;
22673;SDS011;11504;43.334;21.918;2024-02-26T20:49:31;14.0;;;14.0;;
22673;SDS011;11504;43.334;21.918;2024-02-26T20:54:07;14.0;;;14.0;;
22673;SDS011;11504;43.334;21.918;2024-02-26T20:58:44;14.0;;;14.0;;
22673;SDS011;11504;43.334;21.918;2024-02-26T21:03:20;14.0;;;14.0;;
22673;SDS011;11504;43.334;21.918;2024-02-26T21:07:56;14.0;;;14.0;;
22673;SDS011;11504;43.334;21.918;2024-02-26T21:12:33;14.0;;;14.0;;
22673;SDS011;11504;43.334;21.918;2024-02-26T21:17:09;15.0;;;15.0;;
22673;SDS011;11504;43.334;21.918;2024-02-26T21:21:45;15.0;;;15.0;;
22673;SDS011;11504;43.334;21.918;2024-02-26T21:26:22;14.0;;;14.0;;
22673;SDS011;11504;43.334;21.918;2024-02-26T21:30:58;14.0;;;14.0;;
22673;SDS011;11504;43.334;21.918;2024-02-26T21:35:34;13.0;;;12.0;;
22673;SDS011;11504;43.334;21.918;2024-02-26T21:40:12;13.0;;;12.0;;
22673;SDS011;11504;43.334;21.918;2024-02-26T21:44:49;14.0;;;12.0;;
22673;SDS011;11504;43.334;21.918;2024-02-26T21:49:25;14.0;;;12.0;;
22673;SDS011;11504;43.334;21.918;2024-02-26T21:54:01;14.0;;;13.0;;
22673;SDS011;11504;43.334;21.918;2024-02-26T21:58:37;14.0;;;13.0;;
22673;SDS011;11504;43.334;21.918;2024-02-26T22:03:13;14.0;;;13.0;;
22673;SDS011;11504;43.334;21.918;2024-02-26T22:07:49;15.0;;;14.0;;
22673;SDS011;11504;43.334;21.918;2024-02-26T22:12:25;15.0;;;14.0;;
22673;SDS011;11504;43.334;21.918;2024-02-26T22:17:03;16.0;;;16.0;;
22673;SDS011;11504;43.334;21.918;2024-02-26T22:21:42;16.0;;;16.0;;
22673;SDS011;11504;43.334;21.918;2024-02-26T22:26:21;16.0;;;16.0;;
22673;SDS011;11504;43.334;21.918;2024-02-26T22:30:57;16.0;;;16.0;;
22673;SDS011;11504;43.334;21.918;2024-02-26T22:35:34;16.0;;;15.0;;
22673;SDS011;11504;43.334;21.918;2024-02-26T22:40:12;16.0;;;15.0;;
22673;SDS011;11504;43.334;21.918;2024-02-26T22:44:49;16.0;;;14.0;;
22673;SDS011;11504;43.334;21.918;2024-02-26T22:49:26;16.0;;;14.0;;
22673;SDS011;11504;43.334;21.918;2024-02-26T22:54:03;15.0;;;14.0;;
22673;SDS011;11504;43.334;21.918;2024-02-26T22:58:39;15.0;;;14.0;;
22673;SDS011;11504;43.334;21.918;2024-02-26T23:03:16;15.0;;;14.0;;
22673;SDS011;11504;43.334;21.918;2024-02-26T23:07:55;16.0;;;14.0;;
22673;SDS011;11504;43.334;21.918;2024-02-26T23:12:33;16.0;;;14.0;;
22673;SDS011;11504;43.334;21.918;2024-02-26T23:17:10;16.0;;;15.0;;
22673;SDS011;11504;43.334;21.918;2024-02-26T23:21:46;16.0;;;15.0;;
22673;SDS011;11504;43.334;21.918;2024-02-26T23:26:22;14.0;;;14.0;;
22673;SDS011;11504;43.334;21.918;2024-02-26T23:30:59;14.0;;;14.0;;
22673;SDS011;11504;43.334;21.918;2024-02-26T23:35:35;13.0;;;12.0;;
22673;SDS011;11504;43.334;21.918;2024-02-26T23:40:12;13.0;;;12.0;;
22673;SDS011;11504;43.334;21.918;2024-02-26T23:44:48;12.0;;;12.0;;
22673;SDS011;11504;43.334;21.918;2024-02-26T23:49:25;12.0;;;12.0;;
22673;SDS011;11504;43.334;21.918;2024-02-26T23:54:02;12.0;;;11.0;;
22673;SDS011;11504;43.334;21.918;2024-02-26T23:58:38;12.0;;;11.0;;
